Time;durP1;ratioP1;P1;durP2;ratioP2;P2;SDS_P1;SDS_P2;PMS_P1;PMS_P2;Temp;Humidity;BMP_temperature;BMP_pressure;BME280_temperature;BME280_humidity;BME280_pressure;Samples;Min_cycle;Max_cycle;Signal;HPM_P1;HPM_P2
2021/09/04 00:00:13;;;;;;;0.70;0.60;;;22.20;57.70;;;;;;5063629;28;20072;-36
2021/09/04 00:02:40;;;;;;;0.47;0.40;;;22.20;57.70;;;;;;5063881;28;20111;-36
2021/09/04 00:05:06;;;;;;;0.60;0.60;;;22.20;57.80;;;;;;5062883;28;20040;-36
2021/09/04 00:07:33;;;;;;;0.70;0.50;;;22.10;57.60;;;;;;5063008;28;20036;-36
2021/09/04 00:09:59;;;;;;;0.50;0.45;;;22.10;57.70;;;;;;5063464;28;20044;-37
2021/09/04 00:12:26;;;;;;;2.05;0.60;;;22.00;57.60;;;;;;5063418;28;20028;-36
2021/09/04 00:14:53;;;;;;;0.55;0.50;;;22.00;57.70;;;;;;5064148;28;20032;-36
2021/09/04 00:17:19;;;;;;;0.60;0.60;;;22.00;57.60;;;;;;5063169;28;20032;-35
2021/09/04 00:19:45;;;;;;;0.70;0.60;;;21.90;57.50;;;;;;5050094;28;20025;-36
2021/09/04 00:22:11;;;;;;;0.77;0.65;;;21.90;57.60;;;;;;5042077;28;20707;-36
2021/09/04 00:24:37;;;;;;;0.43;0.40;;;21.80;57.50;;;;;;5061724;28;20063;-36
2021/09/04 00:27:06;;;;;;;0.70;0.47;;;21.80;57.60;;;;;;5063106;28;20025;-36
2021/09/04 00:29:33;;;;;;;0.63;0.60;;;21.80;57.50;;;;;;5044043;28;20084;-36
2021/09/04 00:31:59;;;;;;;0.60;0.60;;;21.80;57.60;;;;;;5045301;28;20516;-36
2021/09/04 00:34:25;;;;;;;0.52;0.52;;;21.80;57.90;;;;;;5061049;28;20072;-36
2021/09/04 00:36:51;;;;;;;0.70;0.65;;;21.70;57.60;;;;;;5045072;28;20033;-36
2021/09/04 00:39:18;;;;;;;0.75;0.60;;;21.70;57.80;;;;;;5059869;28;20047;-36
2021/09/04 00:41:45;;;;;;;0.82;0.80;;;21.60;57.90;;;;;;5063240;28;20032;-35
2021/09/04 00:44:15;;;;;;;0.80;0.70;;;21.60;57.80;;;;;;5058258;28;20048;-35
2021/09/04 00:46:41;;;;;;;1.10;1.00;;;21.50;57.70;;;;;;5062876;28;20021;-36
2021/09/04 00:49:08;;;;;;;0.80;0.77;;;21.50;57.70;;;;;;5053518;28;20055;-36
2021/09/04 00:51:34;;;;;;;1.25;1.08;;;21.50;57.80;;;;;;5062366;28;20313;-35
2021/09/04 00:54:00;;;;;;;1.20;0.80;;;21.40;57.60;;;;;;5061888;28;20029;-36
2021/09/04 00:56:26;;;;;;;0.98;0.73;;;21.40;57.70;;;;;;5044511;28;20045;-36
2021/09/04 00:58:53;;;;;;;0.85;0.80;;;21.40;57.70;;;;;;5044566;28;20033;-35
2021/09/04 01:01:19;;;;;;;1.15;0.80;;;21.30;57.60;;;;;;5056517;28;20032;-35
2021/09/04 01:03:46;;;;;;;1.70;1.00;;;21.30;58.30;;;;;;5035520;28;20026;-35
2021/09/04 01:06:15;;;;;;;0.75;0.75;;;21.20;57.60;;;;;;5052894;28;20040;-35
2021/09/04 01:08:42;;;;;;;1.23;0.82;;;21.20;57.70;;;;;;5062467;28;20021;-35
2021/09/04 01:11:11;;;;;;;1.17;0.98;;;21.20;57.80;;;;;;5042623;28;20033;-36
2021/09/04 01:13:37;;;;;;;1.38;1.00;;;21.10;57.80;;;;;;5024501;28;20037;-35
2021/09/04 01:16:04;;;;;;;1.08;0.95;;;21.20;58.00;;;;;;5058796;28;20521;-36
2021/09/04 01:18:30;;;;;;;0.87;0.77;;;21.10;57.80;;;;;;5062395;28;20052;-35
2021/09/04 01:20:56;;;;;;;1.20;0.90;;;21.10;57.90;;;;;;5062218;28;20293;-35
2021/09/04 01:23:22;;;;;;;1.13;0.90;;;21.00;57.70;;;;;;5061946;28;20124;-36
2021/09/04 01:25:54;;;;;;;1.92;1.13;;;21.00;57.70;;;;;;5062028;28;20037;-36
2021/09/04 01:28:20;;;;;;;1.20;0.90;;;21.00;57.70;;;;;;5062239;28;20112;-36
2021/09/04 01:30:47;;;;;;;1.42;1.25;;;20.90;57.70;;;;;;5062134;28;20029;-36
2021/09/04 01:33:13;;;;;;;1.17;1.08;;;20.90;57.70;;;;;;5044357;28;20544;-36
2021/09/04 01:35:39;;;;;;;1.30;1.10;;;20.80;57.80;;;;;;5060968;28;20093;-36
2021/09/04 01:38:05;;;;;;;1.45;1.27;;;20.80;57.80;;;;;;5060142;28;20041;-35
2021/09/04 01:40:32;;;;;;;1.20;1.10;;;20.80;57.80;;;;;;5061726;28;20040;-36
2021/09/04 01:42:58;;;;;;;1.10;1.00;;;20.80;57.80;;;;;;5061574;28;20658;-36
2021/09/04 01:45:24;;;;;;;1.35;0.90;;;20.70;58.00;;;;;;5060206;28;20040;-36
2021/09/04 01:47:50;;;;;;;1.17;0.88;;;20.70;58.00;;;;;;5061719;28;20029;-35
2021/09/04 01:50:16;;;;;;;1.25;1.08;;;20.60;57.90;;;;;;5068628;28;20041;-36
2021/09/04 01:52:44;;;;;;;1.15;0.88;;;20.60;58.00;;;;;;5061656;28;20094;-36
2021/09/04 01:55:12;;;;;;;1.17;1.00;;;20.60;58.00;;;;;;5061382;28;20071;-36
2021/09/04 01:57:38;;;;;;;1.00;0.90;;;20.50;58.20;;;;;;5061451;28;20119;-35
2021/09/04 02:00:09;;;;;;;1.67;0.90;;;20.50;58.10;;;;;;5061852;28;20025;-35
2021/09/04 02:02:35;;;;;;;1.10;0.90;;;20.50;58.00;;;;;;5061653;28;20132;-36
2021/09/04 02:05:01;;;;;;;0.80;0.80;;;20.50;58.00;;;;;;5058587;28;20371;-36
2021/09/04 02:07:29;;;;;;;1.30;1.00;;;20.40;58.10;;;;;;5047837;28;20074;-36
2021/09/04 02:09:55;;;;;;;1.20;0.75;;;20.40;57.90;;;;;;5061608;28;20048;-36
2021/09/04 02:12:21;;;;;;;1.00;0.90;;;20.30;58.10;;;;;;5061424;28;20112;-35
2021/09/04 02:14:47;;;;;;;2.67;1.00;;;20.30;58.00;;;;;;5061319;28;20112;-35
2021/09/04 02:17:13;;;;;;;0.95;0.85;;;20.30;58.00;;;;;;5062951;28;20040;-36
2021/09/04 02:19:39;;;;;;;1.20;0.80;;;20.20;58.00;;;;;;5065713;28;20029;-36
2021/09/04 02:22:06;;;;;;;1.02;0.70;;;20.20;58.10;;;;;;5065429;28;20025;-35
2021/09/04 02:24:32;;;;;;;1.10;0.90;;;20.20;58.20;;;;;;5064919;28;20104;-36
2021/09/04 02:26:58;;;;;;;0.80;0.80;;;20.10;58.00;;;;;;5065336;28;20101;-36
2021/09/04 02:29:24;;;;;;;1.10;0.80;;;20.10;58.10;;;;;;5063291;28;20063;-36
2021/09/04 02:31:50;;;;;;;0.93;0.70;;;20.10;58.40;;;;;;5065048;28;20029;-36
2021/09/04 02:34:17;;;;;;;1.13;0.75;;;20.00;58.30;;;;;;5060415;28;20588;-35
2021/09/04 02:36:43;;;;;;;0.80;0.70;;;20.00;58.30;;;;;;5063535;28;20029;-36
2021/09/04 02:39:09;;;;;;;0.82;0.60;;;20.00;58.30;;;;;;5058714;28;20037;-36
2021/09/04 02:41:35;;;;;;;0.80;0.70;;;19.90;58.20;;;;;;5064362;28;20055;-36
2021/09/04 02:44:01;;;;;;;0.95;0.80;;;19.90;58.20;;;;;;5065063;28;20044;-36
2021/09/04 02:46:28;;;;;;;1.52;0.73;;;19.90;58.30;;;;;;5064527;28;20025;-35
2021/09/04 02:48:54;;;;;;;0.70;0.70;;;19.80;58.20;;;;;;5065561;28;20040;-35
2021/09/04 02:51:20;;;;;;;0.90;0.80;;;19.80;58.30;;;;;;5064809;28;20696;-36
2021/09/04 02:53:46;;;;;;;1.25;0.73;;;19.70;58.40;;;;;;5064206;28;20032;-36
2021/09/04 02:56:12;;;;;;;0.80;0.60;;;19.80;58.90;;;;;;5064317;28;20059;-35
2021/09/04 02:58:38;;;;;;;1.25;0.90;;;19.70;59.10;;;;;;5064753;28;20457;-35
2021/09/04 03:01:05;;;;;;;1.00;0.80;;;19.70;59.40;;;;;;5064737;28;20048;-35
2021/09/04 03:03:31;;;;;;;0.80;0.55;;;19.70;59.40;;;;;;5064809;28;20037;-36
2021/09/04 03:06:00;;;;;;;0.70;0.45;;;19.70;59.60;;;;;;5064197;28;20036;-36
2021/09/04 03:08:27;;;;;;;0.70;0.63;;;19.70;59.60;;;;;;5064514;28;20048;-35
2021/09/04 03:10:53;;;;;;;1.02;0.70;;;19.70;59.60;;;;;;5064963;28;20021;-40
2021/09/04 03:13:19;;;;;;;0.80;0.70;;;19.80;59.70;;;;;;5064317;28;20478;-35
2021/09/04 03:15:45;;;;;;;1.00;0.80;;;19.80;59.80;;;;;;5064325;28;20041;-35
2021/09/04 03:18:13;;;;;;;1.10;0.85;;;19.80;59.80;;;;;;5063976;28;20021;-36
2021/09/04 03:20:39;;;;;;;0.70;0.70;;;19.80;59.90;;;;;;5078084;28;20037;-35
2021/09/04 03:23:05;;;;;;;1.40;0.90;;;19.80;60.00;;;;;;5064065;28;20040;-36
2021/09/04 03:25:32;;;;;;;0.82;0.70;;;19.80;60.10;;;;;;5063639;28;20771;-36
2021/09/04 03:27:58;;;;;;;1.15;0.77;;;19.80;60.30;;;;;;5063916;28;20036;-36
2021/09/04 03:30:24;;;;;;;1.50;0.80;;;19.80;60.40;;;;;;5063720;28;20036;-36
2021/09/04 03:32:50;;;;;;;0.90;0.70;;;19.90;60.60;;;;;;5062905;28;20039;-35
2021/09/04 03:35:16;;;;;;;0.98;0.88;;;19.90;60.80;;;;;;5049102;28;20028;-35
2021/09/04 03:37:43;;;;;;;0.90;0.77;;;19.90;60.90;;;;;;5053430;28;20064;-36
2021/09/04 03:40:09;;;;;;;0.80;0.80;;;19.90;61.00;;;;;;5055750;28;20044;-36
2021/09/04 03:42:36;;;;;;;2.13;0.90;;;19.90;61.10;;;;;;5064104;28;20392;-35
2021/09/04 03:45:02;;;;;;;0.82;0.82;;;19.90;61.10;;;;;;5061187;28;20052;-35
2021/09/04 03:47:29;;;;;;;2.00;0.88;;;19.90;61.20;;;;;;5046959;28;20036;-36
2021/09/04 03:49:56;;;;;;;1.80;1.00;;;19.90;61.40;;;;;;5063563;28;20148;-35
2021/09/04 03:52:22;;;;;;;1.25;0.98;;;19.90;61.40;;;;;;5063734;28;20024;-36
2021/09/04 03:54:48;;;;;;;2.47;1.02;;;19.90;61.50;;;;;;5057435;28;20041;-36
2021/09/04 03:57:14;;;;;;;0.82;0.80;;;20.00;61.70;;;;;;5060663;28;20068;-36
2021/09/04 03:59:40;;;;;;;2.22;1.13;;;20.00;61.80;;;;;;5063842;28;20507;-36
2021/09/04 04:02:06;;;;;;;1.23;1.10;;;20.00;62.10;;;;;;5062884;28;20062;-36
2021/09/04 04:04:33;;;;;;;1.17;1.00;;;20.00;62.10;;;;;;5063175;28;20037;-35
2021/09/04 04:06:59;;;;;;;1.52;1.02;;;20.00;62.00;;;;;;5062254;28;20024;-36
2021/09/04 04:09:25;;;;;;;1.10;0.80;;;20.00;62.10;;;;;;5063487;28;20029;-36
2021/09/04 04:11:51;;;;;;;1.15;0.90;;;20.00;62.30;;;;;;5063342;28;20107;-36
2021/09/04 04:14:17;;;;;;;1.38;1.02;;;20.00;62.30;;;;;;5055057;28;20036;-35
2021/09/04 04:16:44;;;;;;;1.10;1.00;;;20.00;62.40;;;;;;5063122;28;20029;-36
2021/09/04 04:19:10;;;;;;;1.40;0.98;;;20.00;62.50;;;;;;5066720;28;20029;-36
2021/09/04 04:21:36;;;;;;;1.00;0.90;;;20.00;62.60;;;;;;5063210;28;20066;-36
2021/09/04 04:24:03;;;;;;;1.27;1.10;;;20.10;62.60;;;;;;5062153;28;20051;-36
2021/09/04 04:26:29;;;;;;;1.80;1.08;;;20.10;62.60;;;;;;5063044;28;20055;-36
2021/09/04 04:28:55;;;;;;;1.05;0.85;;;20.10;62.40;;;;;;5061272;28;20060;-36
2021/09/04 04:31:22;;;;;;;1.30;1.02;;;20.10;62.40;;;;;;5061853;28;20029;-36
2021/09/04 04:33:48;;;;;;;1.35;1.10;;;20.10;62.40;;;;;;5063034;28;20032;-36
2021/09/04 04:36:14;;;;;;;1.40;1.10;;;20.10;62.40;;;;;;5070059;28;20029;-35
2021/09/04 04:38:40;;;;;;;1.58;1.00;;;20.10;62.40;;;;;;5061639;28;20071;-36
2021/09/04 04:41:06;;;;;;;1.20;1.10;;;20.10;62.40;;;;;;5062534;28;20073;-36
2021/09/04 04:43:32;;;;;;;1.58;1.17;;;20.10;62.30;;;;;;5062108;28;20056;-36
2021/09/04 04:45:58;;;;;;;1.20;1.10;;;20.20;62.40;;;;;;5062513;28;20032;-41
2021/09/04 04:48:25;;;;;;;2.00;1.30;;;20.20;62.40;;;;;;5062707;28;20021;-36
2021/09/04 04:50:51;;;;;;;1.60;1.20;;;20.20;62.40;;;;;;5062923;28;20139;-35
2021/09/04 04:53:17;;;;;;;1.25;1.15;;;20.20;62.50;;;;;;5062655;28;20167;-36
2021/09/04 04:55:44;;;;;;;1.57;1.20;;;20.20;62.60;;;;;;5044809;28;20079;-36
2021/09/04 04:58:10;;;;;;;1.40;1.30;;;20.20;62.60;;;;;;5062628;28;20276;-37
2021/09/04 05:00:36;;;;;;;1.10;1.00;;;20.20;62.50;;;;;;5062673;28;20033;-37
2021/09/04 05:03:03;;;;;;;1.13;0.98;;;20.20;62.60;;;;;;5062436;28;20040;-36
2021/09/04 05:05:30;;;;;;;1.88;1.25;;;20.20;62.70;;;;;;5062608;28;20082;-36
2021/09/04 05:07:56;;;;;;;1.52;1.17;;;20.20;62.70;;;;;;5062122;28;20040;-36
2021/09/04 05:10:22;;;;;;;1.30;1.17;;;20.20;62.70;;;;;;5062178;28;20043;-36
2021/09/04 05:12:48;;;;;;;1.63;1.52;;;20.20;62.70;;;;;;5062328;28;20761;-36
2021/09/04 05:15:15;;;;;;;2.10;1.48;;;20.20;62.70;;;;;;5058048;28;20017;-36
2021/09/04 05:17:41;;;;;;;1.30;1.05;;;20.20;62.70;;;;;;5063573;28;20509;-36
2021/09/04 05:20:08;;;;;;;2.40;1.35;;;20.20;62.80;;;;;;5061286;28;20064;-36
2021/09/04 05:22:34;;;;;;;1.58;1.15;;;20.20;62.90;;;;;;5046679;28;20029;-36
2021/09/04 05:25:00;;;;;;;2.20;1.40;;;20.20;62.90;;;;;;5059103;28;20037;-35
2021/09/04 05:27:26;;;;;;;1.55;1.35;;;20.20;62.90;;;;;;5060947;28;20144;-35
2021/09/04 05:29:52;;;;;;;1.92;1.30;;;20.20;62.90;;;;;;5062289;28;20044;-36
2021/09/04 05:32:23;;;;;;;3.20;1.27;;;20.20;63.00;;;;;;5061493;28;20032;-36
2021/09/04 05:34:50;;;;;;;1.65;1.30;;;20.20;63.00;;;;;;5061180;28;20033;-36
2021/09/04 05:37:16;;;;;;;;;;;20.20;63.00;;;;;;5051579;28;20092;-36
2021/09/04 05:39:43;;;;;;;2.45;1.30;;;20.20;63.00;;;;;;5045445;28;19912;-36
2021/09/04 05:42:09;;;;;;;1.52;1.42;;;20.20;63.10;;;;;;5062194;28;20029;-36
2021/09/04 05:44:35;;;;;;;1.50;1.27;;;20.20;63.20;;;;;;5059826;28;20045;-36
2021/09/04 05:47:01;;;;;;;2.17;1.40;;;20.20;63.20;;;;;;5060076;28;20028;-36
2021/09/04 05:49:27;;;;;;;1.65;1.23;;;20.30;63.30;;;;;;5060575;28;20059;-36
2021/09/04 05:51:54;;;;;;;2.20;1.30;;;20.20;63.30;;;;;;5062608;28;20124;-35
2021/09/04 05:54:20;;;;;;;3.15;1.27;;;20.20;63.30;;;;;;5063841;28;20055;-35
2021/09/04 05:56:46;;;;;;;1.80;1.50;;;20.30;63.40;;;;;;5065989;28;20127;-36
2021/09/04 05:59:12;;;;;;;2.15;1.40;;;20.30;63.40;;;;;;5062552;28;20035;-36
2021/09/04 06:01:38;;;;;;;3.90;1.60;;;20.20;63.50;;;;;;5065341;28;20076;-36
2021/09/04 06:04:04;;;;;;;1.45;1.35;;;20.30;63.60;;;;;;5064948;28;20045;-36
2021/09/04 06:06:31;;;;;;;3.30;1.50;;;20.30;63.60;;;;;;5065696;28;20029;-36
2021/09/04 06:08:59;;;;;;;1.65;1.40;;;20.30;63.70;;;;;;5065389;28;20025;-36
2021/09/04 06:11:25;;;;;;;2.40;1.60;;;20.30;63.80;;;;;;5067302;28;20029;-36
2021/09/04 06:13:51;;;;;;;1.73;1.48;;;20.30;63.80;;;;;;5062806;28;20029;-36
2021/09/04 06:16:17;;;;;;;1.60;1.38;;;20.30;63.80;;;;;;5063818;28;20056;-36
2021/09/04 06:18:43;;;;;;;1.60;1.50;;;20.30;63.80;;;;;;5051401;28;20089;-36
2021/09/04 06:21:09;;;;;;;2.83;1.60;;;20.30;63.90;;;;;;5065081;28;20039;-36
2021/09/04 06:23:36;;;;;;;1.80;1.60;;;20.20;63.90;;;;;;5064493;28;20064;-36
2021/09/04 06:26:02;;;;;;;2.10;1.58;;;20.30;64.00;;;;;;5065627;28;20052;-36
2021/09/04 06:28:28;;;;;;;1.98;1.42;;;20.30;63.90;;;;;;5065435;28;20037;-36
2021/09/04 06:30:54;;;;;;;1.73;1.55;;;20.30;64.00;;;;;;5063977;28;20033;-36
2021/09/04 06:33:20;;;;;;;1.73;1.52;;;20.30;64.10;;;;;;5064744;28;20088;-36
2021/09/04 06:35:46;;;;;;;2.97;1.67;;;20.30;64.00;;;;;;5062238;28;20037;-36
2021/09/04 06:38:13;;;;;;;1.55;1.40;;;20.30;64.00;;;;;;5064147;28;20094;-36
2021/09/04 06:40:40;;;;;;;2.85;1.50;;;20.30;64.10;;;;;;5048409;28;20033;-36
2021/09/04 06:43:06;;;;;;;2.30;1.40;;;20.30;64.10;;;;;;5044999;28;20053;-36
2021/09/04 06:45:32;;;;;;;1.60;1.42;;;20.30;64.10;;;;;;5059062;28;20281;-36
2021/09/04 06:47:58;;;;;;;1.42;1.23;;;20.30;64.10;;;;;;5065202;28;20086;-36
2021/09/04 06:50:25;;;;;;;1.90;1.70;;;20.30;64.20;;;;;;5064515;28;20088;-36
2021/09/04 06:52:52;;;;;;;1.63;1.40;;;20.30;64.20;;;;;;5064759;28;20029;-36
2021/09/04 06:55:18;;;;;;;1.77;1.60;;;20.30;64.20;;;;;;5064579;28;20063;-36
2021/09/04 06:57:44;;;;;;;1.50;1.40;;;20.30;64.30;;;;;;5064454;28;20029;-36
2021/09/04 07:00:11;;;;;;;2.13;1.63;;;20.30;64.40;;;;;;5064789;28;20036;-36
2021/09/04 07:02:37;;;;;;;2.58;1.77;;;20.30;64.40;;;;;;5063887;28;20029;-36
2021/09/04 07:05:04;;;;;;;2.50;1.60;;;20.30;64.40;;;;;;5064590;28;20041;-36
2021/09/04 07:07:31;;;;;;;2.20;1.65;;;20.30;64.40;;;;;;5064383;28;20029;-36
2021/09/04 07:09:57;;;;;;;2.08;1.50;;;20.30;64.50;;;;;;5064546;28;20063;-36
2021/09/04 07:12:23;;;;;;;2.33;1.48;;;20.30;64.60;;;;;;5070345;28;20033;-36
2021/09/04 07:14:49;;;;;;;2.75;1.80;;;20.20;64.60;;;;;;5064043;28;20087;-36
2021/09/04 07:17:16;;;;;;;2.42;1.83;;;20.30;64.70;;;;;;5059833;28;20021;-36
2021/09/04 07:19:42;;;;;;;4.05;1.73;;;20.30;64.80;;;;;;5058742;28;20175;-36
2021/09/04 07:22:09;;;;;;;3.15;1.83;;;20.30;64.90;;;;;;5064467;28;20057;-36
2021/09/04 07:24:35;;;;;;;2.30;1.77;;;20.30;65.00;;;;;;5063834;28;20076;-36
2021/09/04 07:27:01;;;;;;;2.33;1.77;;;20.30;64.90;;;;;;5064595;28;20688;-36
2021/09/04 07:29:28;;;;;;;1.70;1.60;;;20.30;65.10;;;;;;5064551;28;20040;-36
2021/09/04 07:31:54;;;;;;;;;;;20.30;65.10;;;;;;5064553;28;20025;-36
2021/09/04 07:34:20;;;;;;;2.22;1.80;;;20.30;65.10;;;;;;5064319;28;19931;-36
2021/09/04 07:36:47;;;;;;;2.53;1.70;;;20.30;65.20;;;;;;5064242;28;20029;-36
2021/09/04 07:39:13;;;;;;;2.38;1.80;;;20.20;65.10;;;;;;5063997;28;20032;-36
2021/09/04 07:41:39;;;;;;;1.80;1.42;;;20.20;65.20;;;;;;5066107;28;20161;-35
2021/09/04 07:44:05;;;;;;;1.77;1.65;;;20.20;65.20;;;;;;5063478;28;20045;-36
2021/09/04 07:46:31;;;;;;;2.00;1.60;;;20.20;65.20;;;;;;5063515;28;20749;-36
2021/09/04 07:48:57;;;;;;;2.38;1.75;;;20.20;65.20;;;;;;5060085;28;20092;-36
2021/09/04 07:51:24;;;;;;;2.13;1.90;;;20.20;65.20;;;;;;5060494;28;20032;-36
2021/09/04 07:53:50;;;;;;;2.00;1.55;;;20.20;65.30;;;;;;5060099;28;20029;-35
2021/09/04 07:56:16;;;;;;;2.90;2.00;;;20.20;65.30;;;;;;5060586;28;20059;-36
2021/09/04 07:58:42;;;;;;;4.05;2.13;;;20.20;65.40;;;;;;5060982;28;20033;-36
2021/09/04 08:01:08;;;;;;;2.05;1.67;;;20.20;65.50;;;;;;5060401;28;20063;-35
2021/09/04 08:03:34;;;;;;;2.53;1.83;;;20.20;65.50;;;;;;5061204;28;20044;-36
2021/09/04 08:06:00;;;;;;;1.92;1.70;;;20.20;65.50;;;;;;5059934;28;20036;-36
2021/09/04 08:08:27;;;;;;;2.97;1.80;;;20.20;65.60;;;;;;5060804;28;20474;-36
2021/09/04 08:10:55;;;;;;;2.42;1.90;;;20.20;65.60;;;;;;5058873;28;20561;-36
2021/09/04 08:13:22;;;;;;;2.15;1.77;;;20.20;65.70;;;;;;5059939;28;20036;-36
2021/09/04 08:15:48;;;;;;;1.73;1.63;;;20.20;65.70;;;;;;5058844;28;20079;-36
2021/09/04 08:18:15;;;;;;;2.30;1.90;;;20.20;65.80;;;;;;5059749;28;20043;-35
2021/09/04 08:20:41;;;;;;;2.40;1.67;;;20.20;65.80;;;;;;5060927;28;20036;-36
2021/09/04 08:23:07;;;;;;;2.22;1.90;;;20.20;65.80;;;;;;5060293;28;20494;-39
2021/09/04 08:25:37;;;;;;;3.73;1.80;;;20.20;65.80;;;;;;5060401;28;20111;-36
2021/09/04 08:28:07;;;;;;;3.30;1.90;;;20.20;65.90;;;;;;5060158;28;20274;-36
2021/09/04 08:30:34;;;;;;;2.58;2.13;;;20.10;65.80;;;;;;5041602;28;20033;-36
2021/09/04 08:33:01;;;;;;;2.70;2.05;;;20.20;65.90;;;;;;5041883;28;20126;-36
2021/09/04 08:35:27;;;;;;;2.67;1.73;;;20.10;65.80;;;;;;5057781;28;20489;-36
2021/09/04 08:37:53;;;;;;;2.92;2.20;;;20.20;66.00;;;;;;5059733;28;20036;-36
2021/09/04 08:40:20;;;;;;;2.83;1.85;;;20.20;66.00;;;;;;5059947;28;20033;-36
2021/09/04 08:42:47;;;;;;;;;;;20.20;66.20;;;;;;5060351;28;20064;-36
2021/09/04 08:45:13;;;;;;;2.25;1.67;;;20.20;66.20;;;;;;5059476;28;19967;-36
2021/09/04 08:47:39;;;;;;;2.50;1.88;;;20.10;66.20;;;;;;5033587;28;20031;-36
2021/09/04 08:50:05;;;;;;;2.90;1.90;;;20.20;66.30;;;;;;5041012;28;20501;-36
2021/09/04 08:52:32;;;;;;;3.20;1.80;;;20.10;66.20;;;;;;5058698;28;20028;-36
2021/09/04 08:54:58;;;;;;;2.50;1.73;;;20.20;66.20;;;;;;5058426;28;20051;-36
2021/09/04 08:57:24;;;;;;;2.83;1.95;;;20.20;66.40;;;;;;5059147;28;20032;-36
2021/09/04 08:59:51;;;;;;;3.47;1.85;;;20.10;66.30;;;;;;5059498;28;20085;-36
2021/09/04 09:02:19;;;;;;;3.03;1.83;;;20.10;66.30;;;;;;5059600;28;20055;-36
2021/09/04 09:05:06;;;;;;;2.22;1.80;;;20.10;66.30;;;;;;5057853;28;20047;-36
2021/09/04 09:07:42;;;;;;;2.60;2.00;;;20.10;67.10;;;;;;5058746;28;20024;-36
2021/09/04 09:10:22;;;;;;;2.70;1.65;;;20.10;66.40;;;;;;5059900;28;20028;-36
2021/09/04 09:12:49;;;;;;;2.53;2.15;;;20.10;66.40;;;;;;5043118;28;20067;-36
2021/09/04 09:15:22;;;;;;;2.50;1.80;;;20.10;66.40;;;;;;5058501;28;20042;-36
2021/09/04 09:18:06;;;;;;;3.20;2.10;;;20.10;66.60;;;;;;5057848;28;20100;-37
2021/09/04 09:20:32;;;;;;;2.30;1.85;;;20.10;66.60;;;;;;5058116;28;20041;-36
2021/09/04 09:23:18;;;;;;;2.03;1.63;;;20.10;66.60;;;;;;5058556;28;20025;-36
2021/09/04 09:25:45;;;;;;;2.65;1.95;;;20.10;66.70;;;;;;5058502;28;20040;-36
2021/09/04 09:28:12;;;;;;;4.40;2.05;;;20.10;66.70;;;;;;5058819;28;20029;-35
2021/09/04 09:30:49;;;;;;;2.72;2.00;;;20.10;66.70;;;;;;5058122;28;20033;-36
2021/09/04 09:33:17;;;;;;;2.45;2.00;;;20.10;66.80;;;;;;5057741;28;20036;-36
2021/09/04 09:35:48;;;;;;;2.47;2.00;;;20.10;66.80;;;;;;5057975;28;20033;-36
2021/09/04 09:38:18;;;;;;;2.38;2.17;;;20.10;66.80;;;;;;5058305;28;20473;-37
2021/09/04 09:40:45;;;;;;;3.47;2.13;;;20.00;66.70;;;;;;5058415;28;20108;-36
2021/09/04 09:43:22;;;;;;;3.08;1.90;;;20.10;66.90;;;;;;5040840;28;20036;-36
2021/09/04 09:45:48;;;;;;;2.15;1.65;;;20.10;66.90;;;;;;5040682;28;20029;-36
2021/09/04 09:48:22;;;;;;;3.83;1.67;;;20.00;66.90;;;;;;5057983;28;20032;-36
2021/09/04 09:50:49;;;;;;;2.90;2.63;;;20.10;67.00;;;;;;5039768;28;20029;-36
2021/09/04 09:53:15;;;;;;;4.32;2.05;;;20.10;67.00;;;;;;5058418;28;20028;-36
2021/09/04 09:55:46;;;;;;;2.17;1.98;;;20.10;67.10;;;;;;5039988;28;20052;-36
2021/09/04 09:58:15;;;;;;;2.50;1.88;;;20.00;67.00;;;;;;5057658;28;20091;-36
2021/09/04 10:00:41;;;;;;;3.65;1.92;;;20.00;67.10;;;;;;5058946;28;20033;-36
2021/09/04 10:03:09;;;;;;;1.95;1.55;;;20.00;67.10;;;;;;5040273;28;20096;-36
2021/09/04 10:05:36;;;;;;;2.80;1.83;;;20.00;67.10;;;;;;5057529;28;20557;-36
2021/09/04 10:08:02;;;;;;;3.10;2.13;;;20.00;67.10;;;;;;5058033;28;20048;-36
2021/09/04 10:10:31;;;;;;;4.73;2.53;;;20.00;67.20;;;;;;5058482;28;20048;-36
2021/09/04 10:12:57;;;;;;;2.95;1.98;;;20.00;67.10;;;;;;5058784;28;20270;-36
2021/09/04 10:15:25;;;;;;;2.80;2.10;;;20.00;67.30;;;;;;5058115;28;20102;-36
2021/09/04 10:17:54;;;;;;;2.45;1.70;;;20.00;67.30;;;;;;5022957;28;20080;-36
2021/09/04 10:20:24;;;;;;;2.70;1.85;;;20.00;67.30;;;;;;5057195;28;20040;-36
2021/09/04 10:22:50;;;;;;;2.65;1.90;;;20.00;67.30;;;;;;5057464;28;20025;-36
2021/09/04 10:25:17;;;;;;;2.85;2.05;;;20.00;67.30;;;;;;5057986;28;20194;-36
2021/09/04 10:27:46;;;;;;;2.20;2.00;;;20.00;67.40;;;;;;5039560;28;20592;-36
2021/09/04 10:30:33;;;;;;;2.58;1.80;;;20.00;67.30;;;;;;5040059;28;20032;-36
2021/09/04 10:33:04;;;;;;;4.53;2.20;;;20.00;67.40;;;;;;5058003;28;20140;-36
2021/09/04 10:35:39;;;;;;;2.72;2.15;;;20.00;67.50;;;;;;5057031;28;20026;-36
2021/09/04 10:38:29;;;;;;;2.70;2.20;;;20.00;67.50;;;;;;5059250;28;20398;-36
2021/09/04 10:41:15;;;;;;;3.08;2.10;;;20.00;67.60;;;;;;5051167;28;20037;-36
2021/09/04 10:43:50;;;;;;;2.55;2.03;;;20.00;67.60;;;;;;5044377;28;20036;-36
2021/09/04 10:46:18;;;;;;;2.83;2.08;;;20.00;67.60;;;;;;5043556;28;20088;-36
2021/09/04 10:48:51;;;;;;;;;;;20.00;67.70;;;;;;5061975;28;20033;-36
2021/09/04 10:51:17;;;;;;;2.60;1.98;;;20.00;67.70;;;;;;5061392;28;19917;-36
2021/09/04 10:53:48;;;;;;;2.33;2.10;;;19.90;67.70;;;;;;5043258;28;20143;-36
2021/09/04 10:56:25;;;;;;;2.55;2.20;;;19.90;67.70;;;;;;5043710;28;20128;-36
2021/09/04 10:58:52;;;;;;;2.63;1.80;;;19.90;67.80;;;;;;5060645;28;20064;-36
2021/09/04 11:01:28;;;;;;;3.30;2.22;;;19.90;67.80;;;;;;5042944;28;20032;-36
2021/09/04 11:03:55;;;;;;;3.35;2.20;;;19.90;67.80;;;;;;5042667;28;20043;-36
2021/09/04 11:06:22;;;;;;;;;;;19.90;67.90;;;;;;5061306;28;20036;-36
2021/09/04 11:08:48;;;;;;;2.40;1.85;;;19.90;68.00;;;;;;5061572;28;20376;-36
2021/09/04 11:11:16;;;;;;;3.40;1.90;;;19.90;68.00;;;;;;5026422;28;20690;-36
2021/09/04 11:13:52;;;;;;;3.17;2.10;;;19.90;68.00;;;;;;5062029;28;20033;-36
2021/09/04 11:16:27;;;;;;;3.13;2.03;;;19.90;68.10;;;;;;5060611;28;20052;-36
2021/09/04 11:18:54;;;;;;;2.95;2.03;;;19.90;68.00;;;;;;5060688;28;20048;-36
2021/09/04 11:21:20;;;;;;;3.25;2.30;;;19.90;68.80;;;;;;5061084;28;20509;-36
2021/09/04 11:23:49;;;;;;;3.33;2.28;;;19.90;68.10;;;;;;5060882;28;20049;-36
2021/09/04 11:26:15;;;;;;;3.45;2.15;;;19.90;68.00;;;;;;5041633;28;20405;-36
2021/09/04 11:28:41;;;;;;;2.47;2.28;;;19.90;68.10;;;;;;5043038;28;20023;-35
2021/09/04 11:31:07;;;;;;;2.28;2.08;;;19.90;68.10;;;;;;5060594;28;20060;-36
2021/09/04 11:33:33;;;;;;;2.75;2.00;;;19.90;68.10;;;;;;5060992;28;20553;-35
2021/09/04 11:35:59;;;;;;;2.17;1.98;;;19.90;68.10;;;;;;5060634;28;20037;-36
2021/09/04 11:38:25;;;;;;;3.88;2.10;;;19.80;68.20;;;;;;5060348;28;20029;-36
2021/09/04 11:40:52;;;;;;;4.28;2.15;;;19.90;68.30;;;;;;5059842;28;20092;-36
2021/09/04 11:43:24;;;;;;;3.58;2.17;;;19.90;68.20;;;;;;5060552;28;20025;-36
2021/09/04 11:46:04;;;;;;;2.88;2.22;;;19.90;68.30;;;;;;5055813;28;20047;-36
2021/09/04 11:48:30;;;;;;;3.90;2.17;;;19.90;68.40;;;;;;5060675;28;20059;-36
2021/09/04 11:51:09;;;;;;;2.28;2.00;;;19.90;68.40;;;;;;5059717;28;20130;-36
2021/09/04 11:53:35;;;;;;;3.35;2.13;;;19.90;68.40;;;;;;5059899;28;20033;-37
2021/09/04 11:56:01;;;;;;;2.55;2.05;;;19.80;68.40;;;;;;5060738;28;20651;-36
2021/09/04 11:58:27;;;;;;;2.58;2.30;;;19.90;68.40;;;;;;5042779;28;20041;-36
2021/09/04 12:00:55;;;;;;;2.63;2.05;;;19.80;68.40;;;;;;5060446;28;20037;-36
2021/09/04 12:03:26;;;;;;;3.33;2.50;;;19.80;68.40;;;;;;5042497;28;20032;-36
2021/09/04 12:05:53;;;;;;;3.05;2.40;;;19.80;68.50;;;;;;5060849;28;20521;-36
2021/09/04 12:08:24;;;;;;;3.13;1.95;;;19.80;68.40;;;;;;5060673;28;20037;-36
2021/09/04 12:10:50;;;;;;;4.20;2.45;;;19.80;68.40;;;;;;5041209;28;20036;-36
2021/09/04 12:13:26;;;;;;;3.38;2.40;;;19.80;68.50;;;;;;5060393;28;20036;-36
2021/09/04 12:15:53;;;;;;;2.67;2.30;;;19.80;68.40;;;;;;5059899;28;20033;-36
2021/09/04 12:18:33;;;;;;;2.72;2.17;;;19.80;68.50;;;;;;5060236;28;20036;-36
2021/09/04 12:21:21;;;;;;;3.35;2.10;;;19.80;68.50;;;;;;5040942;28;20572;-36
2021/09/04 12:23:48;;;;;;;4.85;2.40;;;19.80;68.60;;;;;;5044360;28;20583;-36
2021/09/04 12:26:14;;;;;;;2.75;2.25;;;19.80;68.50;;;;;;5042520;28;20039;-36
2021/09/04 12:28:40;;;;;;;3.05;2.20;;;19.80;68.60;;;;;;5059281;28;20033;-36
2021/09/04 12:31:10;;;;;;;4.20;2.30;;;19.80;68.50;;;;;;5059660;28;20039;-35
2021/09/04 12:33:51;;;;;;;2.97;2.50;;;19.80;68.50;;;;;;5059906;28;20056;-36
2021/09/04 12:36:18;;;;;;;2.38;2.10;;;19.80;68.60;;;;;;5058850;28;20024;-36
2021/09/04 12:38:45;;;;;;;3.05;2.45;;;19.80;68.50;;;;;;5041717;28;20041;-35
2021/09/04 12:41:15;;;;;;;2.95;2.38;;;19.80;68.50;;;;;;5058840;28;20053;-36
2021/09/04 12:43:57;;;;;;;4.78;2.15;;;19.80;68.50;;;;;;5059352;28;20047;-36
2021/09/04 12:46:30;;;;;;;2.67;2.05;;;19.80;68.50;;;;;;5060177;28;20032;-36
2021/09/04 12:48:57;;;;;;;2.97;2.05;;;19.80;68.50;;;;;;5058673;28;20032;-36